Wetterdaten: aktuell Mittwoch, 21.02.2024 18:54
Datum Zeit Temp. A. Feuchte A. Luftdruck Regen Wind Richtung Richtung Taupunkt Windchill Windben
21.02.2024 18:54 7,4 C 70 % 1014,7 hPa 0,0 l/m 4,9 km/h (1 Bft) S-SO 158 2,3 C 7,4 C 4,9 km/h (1 Bft)
21.02.2024 17:55 8,9 C 62 % 1015,2 hPa 0,0 l/m 0,0 km/h (0 Bft) S-SO 148 2,0 C 8,9 C 0,0 km/h (0 Bft)
21.02.2024 17:00 10,9 C 59 % 1015,7 hPa 0,0 l/m 0,0 km/h (0 Bft) SW 220 3,2 C 10,9 C 0,0 km/h (0 Bft)
21.02.2024 16:01 12,2 C 56 % 1016,7 hPa 0,0 l/m 8,9 km/h (2 Bft) SW 215 3,7 C 10,6 C 8,9 km/h (2 Bft)
21.02.2024 15:03 12,3 C 61 % 1017,2 hPa 0,0 l/m 4,7 km/h (1 Bft) S 170 5,0 C 12,3 C 4,7 km/h (1 Bft)
21.02.2024 14:05 9,9 C 68 % 1018,5 hPa 0,0 l/m 15,5 km/h (3 Bft) W 260 4,3 C 4,8 C 15,5 km/h (3 Bft)
21.02.2024 13:09 9,0 C 71 % 1019,9 hPa 0,0 l/m 20,9 km/h (4 Bft) W-SW 242 4,0 C 1,7 C 20,9 km/h (4 Bft)
21.02.2024 12:13 8,6 C 72 % 1021,0 hPa 0,3 l/m 19,6 km/h (3 Bft) SW 235 3,8 C 1,6 C 19,6 km/h (3 Bft)
21.02.2024 11:19 8,3 C 74 % 1021,5 hPa 0,0 l/m 10,7 km/h (2 Bft) W 265 3,9 C 5,3 C 10,7 km/h (2 Bft)
21.02.2024 10:22 8,2 C 74 % 1021,4 hPa 0,0 l/m 10,3 km/h (2 Bft) W 268 3,8 C 5,4 C 10,3 km/h (2 Bft)
21.02.2024 09:24 8,0 C 75 % 1021,8 hPa 0,0 l/m 16,1 km/h (3 Bft) W-SW 255 3,8 C 2,2 C 16,1 km/h (3 Bft)
21.02.2024 08:21 7,3 C 78 % 1021,9 hPa 0,0 l/m 10,7 km/h (2 Bft) SW 220 3,7 C 4,2 C 10,7 km/h (2 Bft)
21.02.2024 07:26 7,0 C 78 % 1021,8 hPa 0,0 l/m 10,0 km/h (2 Bft) SW 232 3,4 C 4,3 C 10,0 km/h (2 Bft)
21.02.2024 06:31 7,4 C 75 % 1022,4 hPa 0,0 l/m 14,3 km/h (3 Bft) SW 235 3,3 C 2,3 C 14,3 km/h (3 Bft)
21.02.2024 05:32 7,4 C 74 % 1022,7 hPa 0,0 l/m 10,1 km/h (2 Bft) SW 218 3,1 C 4,7 C 10,1 km/h (2 Bft)
21.02.2024 04:34 7,3 C 75 % 1022,9 hPa 0,0 l/m 10,7 km/h (2 Bft) W-SW 245 3,2 C 4,2 C 10,7 km/h (2 Bft)
21.02.2024 03:38 7,3 C 75 % 1023,3 hPa 0,0 l/m 10,9 km/h (2 Bft) W-SW 240 3,2 C 4,0 C 10,9 km/h (2 Bft)
21.02.2024 02:43 7,3 C 74 % 1023,9 hPa 0,0 l/m 11,5 km/h (2 Bft) SW 230 3,0 C 3,7 C 11,5 km/h (2 Bft)
21.02.2024 01:46 7,6 C 74 % 1024,6 hPa 0,0 l/m 12,2 km/h (2 Bft) SW 232 3,3 C 3,6 C 12,2 km/h (2 Bft)
21.02.2024 00:51 7,4 C 75 % 1025,1 hPa 0,0 l/m 10,4 km/h (2 Bft) SW 230 3,3 C 4,5 C 10,4 km/h (2 Bft)
20.02.2024 23:55 7,2 C 75 % 1025,5 hPa 0,0 l/m 9,8 km/h (2 Bft) SW 225 3,1 C 4,6 C 9,8 km/h (2 Bft)
20.02.2024 22:57 7,3 C 75 % 1026,0 hPa 0,0 l/m 9,8 km/h (2 Bft) SW 232 3,2 C 4,7 C 9,8 km/h (2 Bft)
20.02.2024 21:58 7,2 C 75 % 1026,2 hPa 0,0 l/m 6,9 km/h (2 Bft) W-SW 250 3,1 C 6,8 C 6,9 km/h (2 Bft)
20.02.2024 20:59 7,4 C 76 % 1026,4 hPa 0,0 l/m 8,1 km/h (2 Bft) W-SW 250 3,5 C 6,0 C 8,1 km/h (2 Bft)
20.02.2024 20:01 7,2 C 78 % 1026,9 hPa 0,0 l/m 9,8 km/h (2 Bft) SW 225 3,6 C 4,6 C 9,8 km/h (2 Bft)
20.02.2024 19:03 7,4 C 74 % 1026,9 hPa 0,0 l/m 10,3 km/h (2 Bft) SW 218 3,1 C 4,5 C 10,3 km/h (2 Bft)
20.02.2024 19:01 7,4 C 74 % 1026,9 hPa 0,0 l/m 10,3 km/h (2 Bft) W 280 3,1 C 4,5 C 10,3 km/h (2 Bft)
_ Min-Zeit 07:24 16:06 18:51 - 20:13 - - 18:29 12:01 20:13
Minimum _ 7,0 C 53 % 1014,6 hPa - 0,0 km/h (0 Bft) - - 1,4 C -0,6 C 0,0 km/h (0 Bft)
_ Max-Zeit 15:18 19:44 19:01 11:59 12:01 - - 15:06 15:18 12:01
Maximum _ 12,8 C 78 % 1026,9 hPa 0,3 l/m 27,4 km/h
W (4 Bft)
- - 5,1 C 12,8 C 27,4 km/h
W (4 Bft)
Durchschnitt _ 8,2 C 72 % 1022,3 hPa #0,3 l/m 10,1 km/h (2 Bft) SW - 3,4 C 5,5 C 10,1 km/h (2 Bft)